createdAt,value
2018-11-02T00:01:15.508Z,19.50
2018-11-02T00:03:43.986Z,19.50
2018-11-02T00:06:12.487Z,19.50
2018-11-02T00:08:40.954Z,19.50
2018-11-02T00:11:09.442Z,19.50
2018-11-02T00:13:37.987Z,19.30
2018-11-02T00:16:06.404Z,19.20
2018-11-02T00:18:34.961Z,19.20
2018-11-02T00:21:03.392Z,19.20
2018-11-02T00:23:31.838Z,19.00
2018-11-02T00:26:00.283Z,19.10
2018-11-02T00:28:28.738Z,19.30
2018-11-02T00:30:57.219Z,19.50
2018-11-02T00:33:25.733Z,19.50
2018-11-02T00:35:54.218Z,19.40
2018-11-02T00:38:22.753Z,19.30
2018-11-02T00:40:51.197Z,19.20
2018-11-02T00:43:19.704Z,19.20
2018-11-02T00:45:48.142Z,19.20
2018-11-02T00:48:16.605Z,19.30
2018-11-02T00:50:45.048Z,19.40
2018-11-02T00:53:13.522Z,19.50
2018-11-02T00:55:41.955Z,19.70
2018-11-02T00:58:10.422Z,19.80
2018-11-02T01:00:38.869Z,19.80
2018-11-02T01:03:07.559Z,19.80
2018-11-02T01:05:35.882Z,19.90
2018-11-02T01:08:04.383Z,19.90
2018-11-02T01:10:32.805Z,20.00
2018-11-02T01:13:01.232Z,20.00
2018-11-02T01:15:29.707Z,20.00
2018-11-02T01:17:58.137Z,20.10
2018-11-02T01:20:26.744Z,20.20
2018-11-02T01:22:55.175Z,20.20
2018-11-02T01:25:23.597Z,20.30
2018-11-02T01:27:52.065Z,20.30
2018-11-02T01:30:20.486Z,20.40
2018-11-02T01:32:48.924Z,20.40
2018-11-02T01:35:17.402Z,20.50
2018-11-02T01:37:45.853Z,20.50
2018-11-02T01:40:14.405Z,20.60
2018-11-02T01:42:42.847Z,20.70
2018-11-02T01:45:11.368Z,20.80
2018-11-02T01:47:39.813Z,20.80
2018-11-02T01:50:08.280Z,20.80
2018-11-02T01:52:36.974Z,20.70
2018-11-02T01:55:06.026Z,20.60
2018-11-02T01:57:34.446Z,20.50
2018-11-02T02:00:02.946Z,20.40
2018-11-02T02:02:31.424Z,20.60
2018-11-02T02:04:59.901Z,20.80
2018-11-02T02:07:28.361Z,20.80
2018-11-02T02:09:56.874Z,20.80
2018-11-02T02:12:25.295Z,20.80
2018-11-02T02:14:53.775Z,20.70
2018-11-02T02:17:22.224Z,20.60
2018-11-02T02:19:50.689Z,20.50
2018-11-02T02:22:19.152Z,20.40
2018-11-02T02:24:47.700Z,20.30
2018-11-02T02:27:16.137Z,20.20
2018-11-02T02:29:44.580Z,20.10
2018-11-02T02:32:13.002Z,19.90
2018-11-02T02:34:41.467Z,19.70
2018-11-02T02:37:09.964Z,19.50
2018-11-02T02:39:38.473Z,19.60
2018-11-02T02:42:06.966Z,19.70
2018-11-02T02:44:35.459Z,19.90
2018-11-02T02:47:03.852Z,20.00
2018-11-02T02:49:32.372Z,19.80
2018-11-02T02:52:00.796Z,19.30
2018-11-02T02:54:29.276Z,19.00
2018-11-02T02:56:57.777Z,18.70
2018-11-02T02:59:26.247Z,18.60
2018-11-02T03:01:54.744Z,18.50
2018-11-02T03:04:23.312Z,18.50
2018-11-02T03:06:51.805Z,18.70
2018-11-02T03:09:20.252Z,18.80
2018-11-02T03:11:48.708Z,18.90
2018-11-02T03:14:17.214Z,19.00
2018-11-02T03:16:45.733Z,19.00
2018-11-02T03:19:14.698Z,19.10
2018-11-02T03:21:43.132Z,19.10
2018-11-02T03:24:11.564Z,19.20
2018-11-02T03:26:40.080Z,19.20
2018-11-02T03:29:08.543Z,19.20
2018-11-02T03:31:37.124Z,19.20
2018-11-02T03:34:05.929Z,19.30
2018-11-02T03:36:34.396Z,19.40
2018-11-02T03:39:02.882Z,19.50
2018-11-02T03:41:31.356Z,19.70
2018-11-02T03:43:59.819Z,19.80
2018-11-02T03:46:28.374Z,19.90
2018-11-02T03:48:56.810Z,20.10
2018-11-02T03:51:25.301Z,20.20
2018-11-02T03:53:53.793Z,20.40
2018-11-02T03:56:22.199Z,20.50
2018-11-02T03:58:50.681Z,20.60
2018-11-02T04:01:19.199Z,20.60
2018-11-02T04:03:47.610Z,20.60
2018-11-02T04:06:16.145Z,20.70
2018-11-02T04:08:44.551Z,20.90
2018-11-02T04:11:13.014Z,20.90
2018-11-02T04:13:41.442Z,20.90
2018-11-02T04:16:09.915Z,20.90
2018-11-02T04:18:38.377Z,21.00
2018-11-02T04:21:06.871Z,21.10
2018-11-02T04:23:35.266Z,21.10
2018-11-02T04:26:03.795Z,21.20
2018-11-02T04:28:32.229Z,21.20
2018-11-02T04:31:00.800Z,21.30
2018-11-02T04:33:29.144Z,21.30
2018-11-02T04:35:57.634Z,21.30
2018-11-02T04:38:26.135Z,21.40
2018-11-02T04:40:54.607Z,21.50
2018-11-02T04:43:23.059Z,21.60
2018-11-02T04:45:51.519Z,21.50
2018-11-02T04:48:19.959Z,21.60
2018-11-02T04:50:48.572Z,21.50
2018-11-02T04:53:16.917Z,21.40
2018-11-02T04:55:45.386Z,21.30
2018-11-02T04:58:13.822Z,21.10
2018-11-02T05:00:42.276Z,20.80
2018-11-02T05:03:10.740Z,20.60
2018-11-02T05:05:39.181Z,20.30
2018-11-02T05:08:07.764Z,20.10
2018-11-02T05:10:36.218Z,19.80
2018-11-02T05:13:04.674Z,19.70
2018-11-02T05:15:33.115Z,19.80
2018-11-02T05:18:01.592Z,19.90
2018-11-02T05:20:30.113Z,20.00
2018-11-02T05:22:58.641Z,20.10
2018-11-02T05:25:27.043Z,20.10
2018-11-02T05:27:55.494Z,20.10
2018-11-02T05:30:23.944Z,20.20
2018-11-02T05:32:52.436Z,20.20
2018-11-02T05:35:20.866Z,20.20
2018-11-02T05:37:49.506Z,20.30
2018-11-02T05:40:17.988Z,20.40
2018-11-02T05:42:46.455Z,20.80
2018-11-02T05:45:14.906Z,21.10
2018-11-02T05:47:43.406Z,21.00
2018-11-02T05:50:11.841Z,20.80
2018-11-02T05:52:40.547Z,20.70
2018-11-02T05:55:09.601Z,20.40
2018-11-02T05:57:38.039Z,20.10
2018-11-02T06:00:06.817Z,19.80
2018-11-02T06:02:35.300Z,19.60
2018-11-02T06:05:03.783Z,19.50
2018-11-02T06:07:32.406Z,19.30
2018-11-02T06:10:00.805Z,19.30
2018-11-02T06:12:29.242Z,19.40
2018-11-02T06:14:57.666Z,19.70
2018-11-02T06:17:26.294Z,20.10
2018-11-02T06:19:54.727Z,20.40
2018-11-02T06:22:23.207Z,20.70
2018-11-02T06:24:51.659Z,20.80
2018-11-02T06:27:20.118Z,20.80
2018-11-02T06:29:48.556Z,20.70
2018-11-02T06:32:17.007Z,20.70
2018-11-02T06:34:45.683Z,20.80
2018-11-02T06:37:14.187Z,21.00
2018-11-02T06:39:42.652Z,21.20
2018-11-02T06:42:11.138Z,21.30
2018-11-02T06:44:39.587Z,21.40
2018-11-02T06:47:08.060Z,21.40
2018-11-02T06:49:36.497Z,21.50
2018-11-02T06:52:04.950Z,21.40
2018-11-02T06:54:33.407Z,21.30
2018-11-02T06:57:01.876Z,21.20
2018-11-02T06:59:30.581Z,21.20
2018-11-02T07:01:58.919Z,21.20
2018-11-02T07:04:27.355Z,21.20
2018-11-02T07:06:55.887Z,20.80
2018-11-02T07:09:24.279Z,20.50
2018-11-02T07:11:52.769Z,20.10
2018-11-02T07:14:21.164Z,19.60
2018-11-02T07:16:49.665Z,18.90
2018-11-02T07:19:18.187Z,18.40
2018-11-02T07:21:46.649Z,18.20
2018-11-02T07:24:15.076Z,18.10
2018-11-02T07:26:43.622Z,18.00
2018-11-02T07:29:12.088Z,18.10
2018-11-02T07:31:40.557Z,18.20
2018-11-02T07:34:09.209Z,18.40
2018-11-02T07:36:37.714Z,19.00
2018-11-02T07:39:08.083Z,19.60
2018-11-02T07:41:36.564Z,20.30
2018-11-02T07:44:05.197Z,20.70
2018-11-02T07:46:33.600Z,21.10
2018-11-02T07:49:02.120Z,21.30
2018-11-02T07:51:30.557Z,21.30
2018-11-02T07:53:59.053Z,21.30
2018-11-02T07:56:27.498Z,21.30
2018-11-02T07:58:55.976Z,21.10
2018-11-02T08:01:24.405Z,20.90
2018-11-02T08:03:52.868Z,20.70
2018-11-02T08:06:21.320Z,20.50
2018-11-02T08:08:49.768Z,20.50
2018-11-02T08:11:18.253Z,20.40
2018-11-02T08:13:46.653Z,20.30
2018-11-02T08:16:15.133Z,20.10
2018-11-02T08:18:43.687Z,20.00
2018-11-02T08:21:12.103Z,19.90
2018-11-02T08:23:40.552Z,19.90
2018-11-02T08:26:09.023Z,19.70
2018-11-02T08:28:37.480Z,19.60
2018-11-02T08:31:06.075Z,19.50
2018-11-02T08:33:34.509Z,19.40
2018-11-02T08:36:03.065Z,19.30
2018-11-02T08:38:31.479Z,19.30
2018-11-02T08:41:00.013Z,19.20
2018-11-02T08:43:28.440Z,19.20
2018-11-02T08:45:56.930Z,19.20
2018-11-02T08:48:25.395Z,19.10
2018-11-02T08:50:53.884Z,19.10
2018-11-02T08:53:22.730Z,19.30
2018-11-02T08:55:51.235Z,19.50
2018-11-02T08:58:19.894Z,19.70
2018-11-02T09:00:48.204Z,19.90
2018-11-02T09:03:16.624Z,20.10
2018-11-02T09:05:45.076Z,20.30
2018-11-02T09:08:13.540Z,20.10
2018-11-02T09:10:41.996Z,19.50
2018-11-02T09:13:10.464Z,19.20
2018-11-02T09:15:38.943Z,19.00
2018-11-02T09:18:07.425Z,18.90
2018-11-02T09:20:36.256Z,18.80
2018-11-02T09:23:04.719Z,18.80
2018-11-02T09:25:33.142Z,18.80
2018-11-02T09:28:02.067Z,18.80
2018-11-02T09:30:30.335Z,18.80
2018-11-02T09:32:58.828Z,18.80
2018-11-02T09:35:27.266Z,18.80
2018-11-02T09:37:55.718Z,18.80
2018-11-02T09:40:24.352Z,18.90
2018-11-02T09:42:52.871Z,19.00
2018-11-02T09:45:21.199Z,19.20
2018-11-02T09:47:49.914Z,19.30
2018-11-02T09:50:18.367Z,19.60
2018-11-02T09:52:46.859Z,19.90
2018-11-02T09:55:16.156Z,20.10
2018-11-02T09:57:45.534Z,20.20
2018-11-02T10:00:14.683Z,20.20
2018-11-02T10:02:43.228Z,20.20
2018-11-02T10:05:12.561Z,20.20
2018-11-02T10:07:41.691Z,20.20
2018-11-02T10:10:10.956Z,20.10
2018-11-02T10:12:39.433Z,20.20
2018-11-02T10:15:09.261Z,20.10
2018-11-02T10:17:37.724Z,20.10
2018-11-02T10:20:06.547Z,20.10
2018-11-02T10:22:35.015Z,20.10
2018-11-02T10:25:03.438Z,20.10
2018-11-02T10:27:31.983Z,20.20
2018-11-02T10:30:00.383Z,20.20
2018-11-02T10:32:28.879Z,20.30
2018-11-02T10:34:57.281Z,20.30
2018-11-02T10:37:25.775Z,20.30
2018-11-02T10:39:54.214Z,20.20
2018-11-02T10:42:22.697Z,20.10
2018-11-02T10:44:51.174Z,20.00
2018-11-02T10:47:19.683Z,19.80
2018-11-02T10:49:48.109Z,19.80
2018-11-02T10:52:16.580Z,19.70
2018-11-02T10:54:45.220Z,19.70
2018-11-02T10:57:13.572Z,19.60
2018-11-02T10:59:42.001Z,19.70
2018-11-02T11:02:23.983Z,19.70
2018-11-02T11:04:52.413Z,19.50
2018-11-02T11:07:20.924Z,19.40
2018-11-02T11:09:49.373Z,19.20
2018-11-02T11:12:17.993Z,19.20
2018-11-02T11:14:46.279Z,19.00
2018-11-02T11:17:14.743Z,18.90
2018-11-02T11:19:43.178Z,18.80
2018-11-02T11:22:11.674Z,18.70
2018-11-02T11:24:40.071Z,18.80
2018-11-02T11:27:08.498Z,18.90
2018-11-02T11:29:36.953Z,18.80
2018-11-02T11:32:05.887Z,18.70
2018-11-02T11:34:34.363Z,18.40
2018-11-02T11:37:02.785Z,18.20
2018-11-02T11:39:31.297Z,18.20
2018-11-02T11:41:59.694Z,18.20
2018-11-02T11:44:28.245Z,18.30
2018-11-02T11:46:56.713Z,18.50
2018-11-02T11:49:25.152Z,18.60
2018-11-02T11:51:53.613Z,18.80
2018-11-02T11:54:22.124Z,19.10
2018-11-02T11:56:50.554Z,19.40
2018-11-02T11:59:19.025Z,19.50
2018-11-02T12:01:47.492Z,19.50
2018-11-02T12:04:16.019Z,19.60
2018-11-02T12:06:44.419Z,19.70
2018-11-02T12:09:13.166Z,19.70
2018-11-02T12:11:41.580Z,19.70
2018-11-02T12:14:10.031Z,19.70
2018-11-02T12:16:38.513Z,19.80
2018-11-02T12:19:07.014Z,19.80
2018-11-02T12:21:35.481Z,19.80
2018-11-02T12:24:03.939Z,19.90
2018-11-02T12:26:32.426Z,20.00
2018-11-02T12:29:00.897Z,20.10
2018-11-02T12:31:29.325Z,20.10
2018-11-02T12:33:57.783Z,20.10
2018-11-02T12:36:26.335Z,20.10
2018-11-02T12:38:54.764Z,20.10
2018-11-02T12:41:23.261Z,20.10
2018-11-02T12:43:51.806Z,20.10
2018-11-02T12:46:20.224Z,20.00
2018-11-02T12:48:49.317Z,20.00
2018-11-02T12:51:17.599Z,19.90
2018-11-02T12:53:46.096Z,19.70
2018-11-02T12:56:14.574Z,19.40
2018-11-02T12:58:43.149Z,19.30
2018-11-02T13:01:11.571Z,19.30
2018-11-02T13:03:40.050Z,19.30
2018-11-02T13:06:08.525Z,19.30
2018-11-02T13:08:36.934Z,19.30
2018-11-02T13:11:05.454Z,19.30
2018-11-02T13:13:33.946Z,19.30
2018-11-02T13:16:02.555Z,19.20
2018-11-02T13:18:30.927Z,19.10
2018-11-02T13:20:59.423Z,18.90
2018-11-02T13:23:27.846Z,18.40
2018-11-02T13:25:56.398Z,17.80
2018-11-02T13:28:24.726Z,17.50
2018-11-02T13:30:53.303Z,17.40
2018-11-02T13:33:21.644Z,17.40
2018-11-02T13:35:50.122Z,17.50
2018-11-02T13:38:18.563Z,17.70
2018-11-02T13:40:47.038Z,17.80
2018-11-02T13:43:15.630Z,17.90
2018-11-02T13:45:44.022Z,18.10
2018-11-02T13:48:12.471Z,18.30
2018-11-02T13:50:41.028Z,18.30
2018-11-02T13:53:09.453Z,18.30
2018-11-02T13:55:37.912Z,18.30
2018-11-02T13:58:06.320Z,18.30
2018-11-02T14:00:34.802Z,18.30
2018-11-02T14:03:03.307Z,18.30
2018-11-02T14:05:31.796Z,18.30
2018-11-02T14:08:00.276Z,18.30
2018-11-02T14:10:28.793Z,18.20
2018-11-02T14:12:57.244Z,18.20
2018-11-02T14:15:25.699Z,18.20
2018-11-02T14:17:54.139Z,18.20
2018-11-02T14:20:22.659Z,18.20
2018-11-02T14:22:51.130Z,18.20
2018-11-02T14:25:19.617Z,18.20
2018-11-02T14:27:48.056Z,18.30
2018-11-02T14:30:17.605Z,18.50
2018-11-02T14:32:46.895Z,18.70
2018-11-02T14:35:15.395Z,18.90
2018-11-02T14:37:43.837Z,19.10
2018-11-02T14:40:12.562Z,19.20
2018-11-02T14:42:41.741Z,19.20
2018-11-02T14:45:14.541Z,19.30
2018-11-02T14:47:43.314Z,19.40
2018-11-02T14:50:12.323Z,19.50
2018-11-02T14:52:40.758Z,19.50
2018-11-02T14:55:09.503Z,19.50
2018-11-02T14:57:37.938Z,19.40
2018-11-02T15:00:07.141Z,19.40
2018-11-02T15:02:35.630Z,19.40
2018-11-02T15:05:04.104Z,19.40
2018-11-02T15:07:32.577Z,19.40
2018-11-02T15:10:01.008Z,19.50
2018-11-02T15:12:29.478Z,19.60
2018-11-02T15:14:57.899Z,19.20
2018-11-02T15:17:26.381Z,19.10
2018-11-02T15:19:54.832Z,19.10
2018-11-02T15:22:23.351Z,18.80
2018-11-02T15:24:51.738Z,18.60
2018-11-02T15:27:20.244Z,18.50
2018-11-02T15:29:48.670Z,18.40
2018-11-02T15:32:17.228Z,18.30
2018-11-02T15:34:45.904Z,18.30
2018-11-02T15:37:14.239Z,18.40
2018-11-02T15:39:42.683Z,18.50
2018-11-02T15:42:11.181Z,18.60
2018-11-02T15:44:39.750Z,18.80
2018-11-02T15:47:08.186Z,19.10
2018-11-02T15:49:36.633Z,19.40
2018-11-02T15:52:05.123Z,19.50
2018-11-02T15:54:33.582Z,19.60
2018-11-02T15:57:02.160Z,19.60
2018-11-02T15:59:30.628Z,19.50
2018-11-02T16:01:59.063Z,19.40
2018-11-02T16:04:27.491Z,19.40
2018-11-02T16:06:56.040Z,19.40
2018-11-02T16:09:24.401Z,19.40
2018-11-02T16:11:52.864Z,19.30
2018-11-02T16:14:21.404Z,19.20
2018-11-02T16:16:49.875Z,19.10
2018-11-02T16:19:18.308Z,19.00
2018-11-02T16:21:46.880Z,18.80
2018-11-02T16:24:15.431Z,18.70
2018-11-02T16:26:43.914Z,18.60
2018-11-02T16:29:12.304Z,18.60
2018-11-02T16:31:40.803Z,18.60
2018-11-02T16:34:09.347Z,18.70
2018-11-02T16:36:37.736Z,18.80
2018-11-02T16:39:08.904Z,19.00
2018-11-02T16:41:37.339Z,19.10
2018-11-02T16:44:06.119Z,19.40
2018-11-02T16:46:34.577Z,19.60
2018-11-02T16:49:03.172Z,19.90
2018-11-02T16:51:31.812Z,20.00
2018-11-02T16:54:00.490Z,20.30
2018-11-02T16:56:29.096Z,20.40
2018-11-02T16:58:57.533Z,20.40
2018-11-02T17:01:25.982Z,20.50
2018-11-02T17:03:54.495Z,20.20
2018-11-02T17:06:22.954Z,19.90
2018-11-02T17:08:51.374Z,19.90
2018-11-02T17:11:19.816Z,19.90
2018-11-02T17:13:48.329Z,20.00
2018-11-02T17:16:16.720Z,19.90
2018-11-02T17:18:45.216Z,19.60
2018-11-02T17:21:13.642Z,19.20
2018-11-02T17:23:42.182Z,18.80
2018-11-02T17:26:10.617Z,18.60
2018-11-02T17:28:39.065Z,18.20
2018-11-02T17:31:07.498Z,18.10
2018-11-02T17:33:36.246Z,18.10
2018-11-02T17:36:04.705Z,18.10
2018-11-02T17:38:33.213Z,18.10
2018-11-02T17:41:01.661Z,18.20
2018-11-02T17:43:30.124Z,18.20
2018-11-02T17:45:58.609Z,18.60
2018-11-02T17:48:27.150Z,19.20
2018-11-02T17:50:55.542Z,19.70
2018-11-02T17:53:24.122Z,20.00
2018-11-02T17:55:52.544Z,20.40
2018-11-02T17:58:20.965Z,20.60
2018-11-02T18:00:49.387Z,20.60
2018-11-02T18:03:17.914Z,20.70
2018-11-02T18:05:46.358Z,20.80
2018-11-02T18:08:14.863Z,20.80
2018-11-02T18:10:43.274Z,20.80
2018-11-02T18:13:11.850Z,20.80
2018-11-02T18:15:40.231Z,20.80
2018-11-02T18:18:08.773Z,20.80
2018-11-02T18:20:37.172Z,20.80
2018-11-02T18:23:05.760Z,20.90
2018-11-02T18:25:34.304Z,20.80
2018-11-02T18:28:02.769Z,20.60
2018-11-02T18:30:31.198Z,20.30
2018-11-02T18:32:59.670Z,20.20
2018-11-02T18:35:28.211Z,20.10
2018-11-02T18:37:56.562Z,20.00
2018-11-02T18:40:24.991Z,19.90
2018-11-02T18:42:53.462Z,19.90
2018-11-02T18:45:21.906Z,19.80
2018-11-02T18:47:51.328Z,19.90
2018-11-02T18:50:23.194Z,19.80
2018-11-02T18:52:51.930Z,19.70
2018-11-02T18:55:20.867Z,19.60
2018-11-02T18:57:49.480Z,19.40
2018-11-02T19:00:18.262Z,19.20
2018-11-02T19:02:46.796Z,19.00
2018-11-02T19:05:16.475Z,18.70
2018-11-02T19:07:44.941Z,18.70
2018-11-02T19:10:13.502Z,18.70
2018-11-02T19:12:42.634Z,18.70
2018-11-02T19:15:13.119Z,18.70
2018-11-02T19:17:41.876Z,18.80
2018-11-02T19:20:11.141Z,18.90
2018-11-02T19:22:39.647Z,18.70
2018-11-02T19:25:09.018Z,18.60
2018-11-02T19:27:37.800Z,18.60
2018-11-02T19:30:06.966Z,18.60
2018-11-02T19:32:35.512Z,18.60
2018-11-02T19:35:04.142Z,18.60
2018-11-02T19:37:32.425Z,18.70
2018-11-02T19:40:00.913Z,18.80
2018-11-02T19:42:29.354Z,19.00
2018-11-02T19:44:58.471Z,19.20
2018-11-02T19:47:44.306Z,19.50
2018-11-02T19:50:14.256Z,19.70
2018-11-02T19:52:42.717Z,20.00
2018-11-02T19:55:12.149Z,20.20
2018-11-02T19:57:41.211Z,20.30
2018-11-02T20:00:11.067Z,20.30
2018-11-02T20:02:40.077Z,20.50
2018-11-02T20:05:09.311Z,20.50
2018-11-02T20:07:38.106Z,20.60
2018-11-02T20:10:06.728Z,20.60
2018-11-02T20:12:35.220Z,20.60
2018-11-02T20:15:03.856Z,20.60
2018-11-02T20:17:32.335Z,20.60
2018-11-02T20:20:00.791Z,20.50
2018-11-02T20:22:29.292Z,20.40
2018-11-02T20:24:57.779Z,20.30
2018-11-02T20:27:26.258Z,20.20
2018-11-02T20:29:54.722Z,20.20
2018-11-02T20:32:23.212Z,20.20
2018-11-02T20:34:51.696Z,20.10
2018-11-02T20:37:20.155Z,20.20
2018-11-02T20:39:48.652Z,20.30
2018-11-02T20:42:17.044Z,20.50
2018-11-02T20:44:45.548Z,20.50
2018-11-02T20:47:14.039Z,20.50
2018-11-02T20:49:42.534Z,20.50
2018-11-02T20:52:10.943Z,20.40
2018-11-02T20:54:39.478Z,20.10
2018-11-02T20:57:07.924Z,19.90
2018-11-02T20:59:36.423Z,19.70
2018-11-02T21:02:04.862Z,19.70
2018-11-02T21:04:33.452Z,19.50
2018-11-02T21:07:01.873Z,19.20
2018-11-02T21:09:30.509Z,18.80
2018-11-02T21:11:58.774Z,18.40
2018-11-02T21:14:27.398Z,18.30
2018-11-02T21:16:55.829Z,18.20
2018-11-02T21:19:24.255Z,18.20
2018-11-02T21:21:52.817Z,18.30
2018-11-02T21:24:21.165Z,18.40
2018-11-02T21:26:49.637Z,18.60
2018-11-02T21:29:18.123Z,18.70
2018-11-02T21:31:46.545Z,18.80
2018-11-02T21:34:15.041Z,19.20
2018-11-02T21:36:43.558Z,19.40
2018-11-02T21:39:13.019Z,19.40
2018-11-02T21:41:41.522Z,19.50
2018-11-02T21:44:10.000Z,19.60
2018-11-02T21:46:38.463Z,19.50
2018-11-02T21:49:06.940Z,19.40
2018-11-02T21:51:35.506Z,19.20
2018-11-02T21:54:03.934Z,19.10
2018-11-02T21:56:32.498Z,19.00
2018-11-02T21:59:00.866Z,18.90
2018-11-02T22:01:29.318Z,18.80
2018-11-02T22:03:57.740Z,18.80
2018-11-02T22:06:26.233Z,19.00
2018-11-02T22:08:54.692Z,19.60
2018-11-02T22:11:23.343Z,20.10
2018-11-02T22:13:51.757Z,20.60
2018-11-02T22:16:20.178Z,20.90
2018-11-02T22:18:48.734Z,21.00
2018-11-02T22:21:17.759Z,21.20
2018-11-02T22:23:46.263Z,21.30
2018-11-02T22:26:14.763Z,21.40
2018-11-02T22:28:43.261Z,21.50
2018-11-02T22:31:11.804Z,21.40
2018-11-02T22:33:40.120Z,21.40
2018-11-02T22:36:08.614Z,21.40
2018-11-02T22:38:37.077Z,21.40
2018-11-02T22:41:05.640Z,20.80
2018-11-02T22:43:34.067Z,20.10
2018-11-02T22:46:02.525Z,19.70
2018-11-02T22:48:31.065Z,19.60
2018-11-02T22:50:59.488Z,19.60
2018-11-02T22:53:27.918Z,19.50
2018-11-02T22:55:56.374Z,19.50
2018-11-02T22:58:24.824Z,19.50
2018-11-02T23:01:10.451Z,19.50
2018-11-02T23:03:38.931Z,19.60
2018-11-02T23:06:07.422Z,19.50
2018-11-02T23:08:35.938Z,19.70
2018-11-02T23:11:04.401Z,19.80
2018-11-02T23:13:32.929Z,19.90
2018-11-02T23:16:01.376Z,20.00
2018-11-02T23:18:29.921Z,20.00
2018-11-02T23:20:58.324Z,20.10
2018-11-02T23:23:26.778Z,20.10
2018-11-02T23:25:55.203Z,20.00
2018-11-02T23:28:23.625Z,20.00
2018-11-02T23:30:52.049Z,20.10
2018-11-02T23:33:20.673Z,20.10
2018-11-02T23:35:49.137Z,20.40
2018-11-02T23:38:17.598Z,20.60
2018-11-02T23:40:46.061Z,20.50
2018-11-02T23:43:14.534Z,20.50
2018-11-02T23:45:43.016Z,20.60
2018-11-02T23:48:18.892Z,20.60
2018-11-02T23:50:48.659Z,20.50
2018-11-02T23:53:17.173Z,20.60
2018-11-02T23:55:46.132Z,20.60
2018-11-02T23:58:14.959Z,20.50
